Nearby METAR Reports

 

KAIK - Aiken, South Carolina, USA
Distance from station: NE 8mi, 13km
Updated: Tue, 23-Apr-2024 12:15 EDT
Clear
Clear
 Wind from W
Wind: W 11 km/h
Temperature: 66°F , 19°C
Dew Point: 41°F , 5°C
Humidity: 40%
Barometer: 30.25 inHg , 1024.4 hPa
Clouds: Clear
Visibility: 16 km
2024/04/23 16:15 KAIK 231615Z AUTO 28006KT 10SM CLR 19/05 A3025 RMK AO2 T01920050
KDNL - Augusta/Daniel, Georgia, USA
Distance from station: WSW 16mi, 26km
Updated: Tue, 23-Apr-2024 11:53 EDT
Clear
Clear
 Wind from W
Wind: W 7 km/h
Temperature: 66°F , 19°C
Dew Point: 39°F , 4°C
Humidity: 37%
Barometer: 30.25 inHg , 1024.4 hPa
Clouds: Clear
Visibility: 16 km
2024/04/23 15:53 KDNL 231553Z AUTO 27004KT 10SM CLR 19/04 A3025 RMK AO2 SLP240 T01890044
KAGS - Augusta/Bush, Georgia, USA
Distance from station: SW 18mi, 28km
Updated: Tue, 23-Apr-2024 11:53 EDT
Clear
Clear
 Wind from varies
Wind: varies 6 km/h
Temperature: 66°F , 19°C
Dew Point: 39°F , 4°C
Humidity: 37%
Barometer: 30.24 inHg , 1024 hPa
Clouds: Clear
Visibility: 16 km
2024/04/23 15:53 KAGS 231553Z VRB03KT 10SM CLR 19/04 A3024 RMK AO2 SLP238 T01940044
 
KBNL - Barnwell, South Carolina, USA
Distance from station: SE 33mi, 52km
Updated: Tue, 23-Apr-2024 12:15 EDT
Clear
Clear
 Wind from calm
Wind: Calm
Temperature: 66°F , 19°C
Dew Point: 36°F , 2°C
Humidity: 32%
Barometer: 30.25 inHg , 1024.4 hPa
Clouds: Clear
Visibility: 16 km
2024/04/23 16:15 KBNL 231615Z AUTO 00000KT 10SM CLR 19/02 A3025 RMK AO2
KXNO - North Af Auxfld, South Carolina, USA
Distance from station: E 41mi, 66km
Updated: Tue, 23-Apr-2024 11:55 EDT
Clear
Clear
 Wind from N
Wind: N 6 km/h
Temperature: 68°F , 20°C
Dew Point: 36°F , 2°C
Humidity: 30%
Barometer: 30.23 inHg , 1023.7 hPa
Clouds: Clear
Visibility: 16 km
2024/04/23 15:55 KXNO 231555Z AUTO 35003KT 10SM CLR 20/02 A3023 RMK AO2 SLP239 T01960020 $
KHQU - Mcduffie/Thomson, Georgia, USA
Distance from station: W 42mi, 68km
Updated: Tue, 23-Apr-2024 12:15 EDT
Clear
Clear
 Wind from S
Wind: S 9 km/h
Temperature: 68°F , 20°C
Dew Point: 41°F , 5°C
Humidity: 38%
Barometer: 30.25 inHg , 1024.4 hPa
Clouds: Clear
Visibility: 16 km
2024/04/23 16:15 KHQU 231615Z AUTO 19005KT 10SM CLR 20/05 A3025 RMK AO2 T01980052
 
KCAE - Columbia, South Carolina, USA
Distance from station: ENE 46mi, 74km
Updated: Tue, 23-Apr-2024 11:56 EDT
Few Clouds
Few Clouds
 Wind from varies
Wind: varies 6 km/h
Temperature: 66°F , 19°C
Dew Point: 43°F , 6°C
Humidity: 43%
Barometer: 30.23 inHg , 1023.7 hPa
Clouds: Few Clouds
Visibility: 16 km
Cloud details: Few Clouds 22000 ft
2024/04/23 15:56 KCAE 231556Z VRB03KT 10SM FEW220 19/06 A3023 RMK AO2 SLP234 T01890061
K2J5 - Millen, Georgia, USA
Distance from station: SSW 48mi, 77km
Updated: Tue, 23-Apr-2024 12:15 EDT
Clear
Clear
 Wind from calm
Wind: Calm
Temperature: 66°F , 19°C
Dew Point: 39°F , 4°C
Humidity: 37%
Barometer: 30.26 inHg , 1024.7 hPa
Clouds: Clear
Visibility: 16 km
2024/04/23 16:15 K2J5 231615Z AUTO 00000KT 10SM CLR 19/04 A3026 RMK AO2 T01930038
KAQX - Allendale, South Carolina, USA
Distance from station: SE 50mi, 80km
Updated: Tue, 23-Apr-2024 12:15 EDT
Clear
Clear
 Wind from calm
Wind: Calm
Temperature: 66°F , 19°C
Dew Point: 36°F , 2°C
Humidity: 32%
Barometer: 30.24 inHg , 1024 hPa
Clouds: Clear
Visibility: 16 km
2024/04/23 16:15 KAQX 231615Z AUTO 00000KT 10SM CLR 19/02 A3024 RMK AO2 TSNO